sim
Sign-in with your pilot id or email,
or register
Callsign
Passwort

Schedule Details

Flight Number: RYR7128 (2)
Departure: Dublin Airport (EIDW) at 14:20
Arrival: Fuerteventura Airport (GCFV) at 18:45
Route: Ryanair Passenger Schedule. Enter filed route here before submitting Pirep.

Weather Information
Getting current METAR information for EIDW 211530Z 18017KT 9999 FEW022 BKN250 13/06 Q1020 NOSIG
Getting current METAR information for GCFV 211530Z 07005KT 020V110 CAVOK 20/14 Q1020

Schedule Frequency

Route Map